Current Conditions
Partly Cloudy
Conditions



Pressure
1001.92 (hPa) - 29.59 (inHG)
Visibility

6.2 (miles) - 10.0 (km)
Temperature
11  °C
Temperature
9  °C
Dewpoint
88  %
 Humidity
Wind Speed
0  mph
0  kts
0  km/h
0  m/s
Wind Direction
N
45°
E
90°
135°
S
180°
225°
W
270°
315°
Calm

Due North
Airport Data
EGPN
Dundee Airport
Metar :EGPN 241950Z 00000KT 9999 FEW025 SCT048 11/09 Q1002
Tue 24th May 20:50 pm
Raw Metar Info
Raw METAR is the most common format in the world for the transmission of observational weather data. It is highly standardized through the International Civil Aviation Organization (ICAO), which allows it to be understood throughout most of the world.
API Info
Data Provided by
https://www.checkwx.com/weather/EGPN

Aviation Weather providing METAR, TAF, AIRMET, SIGMET and OUTLOOK Weather Reports
© Info
CSS/SVG/PHP scripts were developed by weather34 for use in the weather34 template © 2015-2022

Guide Info provided by Metar-Wikipedia